Time;durP1;ratioP1;P1;durP2;ratioP2;P2;SDS_P1;SDS_P2;PMS_P1;PMS_P2;Temp;Humidity;BMP_temperature;BMP_pressure;BME280_temperature;BME280_humidity;BME280_pressure;Samples;Min_cycle;Max_cycle;Signal;HPM_P1;HPM_P2
2023/03/26 00:00:04;;;;;;;20.00;4.28;;;;;;;6.26;100.00;99885.88;5037354;28;20191;-44
2023/03/26 00:02:38;;;;;;;16.15;3.92;;;;;;;6.24;100.00;99882.38;5039552;28;20274;-43
2023/03/26 00:05:05;;;;;;;16.42;4.18;;;;;;;6.27;100.00;99887.59;5039414;28;20291;-43
2023/03/26 00:07:31;;;;;;;13.30;3.92;;;;;;;6.23;100.00;99886.00;5043830;28;20204;-43
2023/03/26 00:09:57;;;;;;;17.42;4.65;;;;;;;6.25;100.00;99884.13;5042216;28;20191;-42
2023/03/26 00:12:24;;;;;;;17.17;4.00;;;;;;;6.25;100.00;99883.25;5032747;28;20199;-42
2023/03/26 00:14:51;;;;;;;13.85;4.32;;;;;;;6.29;100.00;99890.19;5037465;28;20254;-43
2023/03/26 00:17:16;;;;;;;16.77;4.53;;;;;;;6.22;100.00;99894.00;5040299;28;20241;-43
2023/03/26 00:19:42;;;;;;;18.73;4.20;;;;;;;6.22;100.00;99907.31;5037750;28;20599;-43
2023/03/26 00:22:12;;;;;;;15.60;4.20;;;;;;;6.25;100.00;99904.53;5042732;28;20206;-43
2023/03/26 00:24:39;;;;;;;25.83;4.25;;;;;;;6.21;100.00;99905.56;5038935;28;20194;-45
2023/03/26 00:27:04;;;;;;;18.08;4.57;;;;;;;6.22;100.00;99912.63;5038346;28;20219;-44
2023/03/26 00:29:32;;;;;;;16.33;4.05;;;;;;;6.18;100.00;99909.19;5037964;28;20242;-41
2023/03/26 00:31:58;;;;;;;17.33;4.10;;;;;;;6.18;100.00;99912.72;5030996;28;20184;-43
2023/03/26 00:34:25;;;;;;;14.32;4.07;;;;;;;6.21;100.00;99922.41;5040412;28;20190;-44
2023/03/26 00:36:53;;;;;;;19.10;4.03;;;;;;;6.18;100.00;99923.34;5038207;28;20175;-44
2023/03/26 00:39:22;;;;;;;15.75;3.35;;;;;;;6.22;100.00;99920.63;5036797;28;20649;-44
2023/03/26 00:41:53;;;;;;;15.65;3.20;;;;;;;6.21;100.00;99932.16;5037403;28;20207;-43
2023/03/26 00:44:19;;;;;;;18.55;3.80;;;;;;;6.26;100.00;99928.44;5038534;28;20704;-44
2023/03/26 00:46:45;;;;;;;18.63;3.72;;;;;;;6.29;100.00;99930.09;5042428;28;20701;-43
2023/03/26 00:49:13;;;;;;;16.08;3.15;;;;;;;6.16;100.00;99933.19;5036972;28;20176;-42
2023/03/26 00:51:39;;;;;;;11.82;3.00;;;;;;;6.17;100.00;99928.75;5038268;28;20229;-43
2023/03/26 00:54:07;;;;;;;17.77;3.55;;;;;;;6.24;100.00;99929.41;5039971;28;20241;-42
2023/03/26 00:56:33;;;;;;;15.95;2.97;;;;;;;6.21;100.00;99932.16;5045909;28;20269;-43
2023/03/26 00:58:59;;;;;;;14.23;2.70;;;;;;;6.27;100.00;99940.78;5036454;28;20184;-44
2023/03/26 01:01:27;;;;;;;13.40;3.25;;;;;;;6.37;100.00;99944.88;5039893;28;20233;-43
2023/03/26 01:03:57;;;;;;;13.30;3.22;;;;;;;6.27;100.00;99937.28;5039290;28;20187;-43
2023/03/26 01:06:34;;;;;;;19.95;3.63;;;;;;;6.25;100.00;99939.09;5024897;28;20720;-43
2023/03/26 01:09:23;;;;;;;13.35;3.08;;;;;;;6.19;100.00;99951.72;5038165;28;20265;-44
2023/03/26 01:11:49;;;;;;;12.43;3.47;;;;;;;6.18;100.00;99951.75;5035750;28;20582;-43
2023/03/26 01:14:18;;;;;;;16.55;3.60;;;;;;;6.16;100.00;99962.44;5035661;28;20184;-43
2023/03/26 01:16:51;;;;;;;18.42;3.60;;;;;;;6.17;100.00;99969.50;5041842;28;20200;-43
2023/03/26 01:19:21;;;;;;;9.73;3.00;;;;;;;6.22;100.00;99961.38;5038805;28;20621;-43
2023/03/26 01:21:47;;;;;;;13.27;3.53;;;;;;;6.13;100.00;99959.91;5038965;28;20195;-43
2023/03/26 01:24:14;;;;;;;14.32;3.15;;;;;;;6.13;100.00;99965.22;5037468;28;20647;-42
2023/03/26 01:27:03;;;;;;;11.48;2.80;;;;;;;6.14;100.00;99985.59;5035604;28;20207;-42
2023/03/26 01:29:28;;;;;;;16.40;3.35;;;;;;;6.07;100.00;99986.69;5039642;28;20176;-43
2023/03/26 01:31:58;;;;;;;9.63;2.63;;;;;;;6.12;100.00;99979.44;5034371;28;20727;-43
2023/03/26 01:34:38;;;;;;;15.98;2.90;;;;;;;6.13;100.00;99983.81;5034565;28;20180;-44
2023/03/26 01:37:38;;;;;;;9.60;2.58;;;;;;;6.06;100.00;99984.97;5040000;28;20187;-44
2023/03/26 01:40:22;;;;;;;10.80;2.42;;;;;;;6.11;100.00;99990.13;5038848;28;20186;-43
2023/03/26 01:42:58;;;;;;;11.70;2.40;;;;;;;6.06;100.00;99984.97;5042042;28;20276;-43
2023/03/26 01:45:29;;;;;;;11.45;2.03;;;;;;;6.00;100.00;99987.81;5037236;28;20222;-44
2023/03/26 01:47:55;;;;;;;16.00;3.10;;;;;;;6.02;100.00;99985.97;5036112;28;20207;-43
2023/03/26 01:50:21;;;;;;;12.27;2.70;;;;;;;6.04;100.00;99991.25;5037172;28;20195;-44
2023/03/26 01:52:46;;;;;;;8.70;2.25;;;;;;;6.05;100.00;99992.97;5036232;28;20192;-43
2023/03/26 01:55:13;;;;;;;10.73;2.38;;;;;;;6.12;100.00;99991.84;5037781;28;20228;-43
2023/03/26 01:58:20;;;;;;;10.88;2.72;;;;;;;5.98;100.00;99994.97;5037786;28;20172;-44
2023/03/26 02:01:16;;;;;;;7.53;2.10;;;;;;;5.95;100.00;100000.41;5019595;28;20195;-43
2023/03/26 02:04:03;;;;;;;13.27;2.53;;;;;;;6.07;100.00;99994.66;5009919;28;20200;-45
2023/03/26 02:06:45;;;;;;;12.43;2.92;;;;;;;5.97;100.00;99998.56;5037280;28;20289;-42
2023/03/26 02:09:18;;;;;;;12.93;2.72;;;;;;;5.97;100.00;100003.88;5036248;28;20214;-44
2023/03/26 02:11:46;;;;;;;11.38;2.28;;;;;;;5.97;100.00;99999.44;5036444;28;20193;-43
2023/03/26 02:14:13;;;;;;;10.32;2.40;;;;;;;5.96;100.00;100004.78;5032787;28;20222;-44
2023/03/26 02:16:39;;;;;;;10.55;2.13;;;;;;;6.01;100.00;100007.28;5039033;28;20191;-43
2023/03/26 02:19:08;;;;;;;7.45;2.03;;;;;;;5.86;100.00;99996.22;5034964;28;20185;-41
2023/03/26 02:21:34;;;;;;;7.60;1.98;;;;;;;5.80;100.00;100007.03;5021942;28;20530;-42
2023/03/26 02:24:03;;;;;;;9.55;1.60;;;;;;;5.86;100.00;100005.97;5045231;28;20186;-43
2023/03/26 02:26:33;;;;;;;6.30;1.60;;;;;;;5.87;100.00;100010.38;5041072;28;20824;-45
2023/03/26 02:29:10;;;;;;;8.48;1.58;;;;;;;5.91;100.00;100015.53;5047133;28;20190;-45
2023/03/26 02:31:37;;;;;;;10.27;1.90;;;;;;;5.76;100.00;100010.72;5035533;28;20328;-46
2023/03/26 02:34:03;;;;;;;9.18;1.70;;;;;;;5.80;100.00;100012.38;5033846;28;20263;-48
2023/03/26 02:36:32;;;;;;;6.60;1.95;;;;;;;5.72;100.00;100009.94;5041327;28;20199;-45
2023/03/26 02:39:00;;;;;;;11.45;2.00;;;;;;;5.65;100.00;100005.75;5034280;28;20590;-45
2023/03/26 02:41:29;;;;;;;10.88;2.30;;;;;;;5.68;100.00;100004.75;5046657;28;20183;-44
2023/03/26 02:43:59;;;;;;;7.72;2.10;;;;;;;5.56;100.00;100012.22;5045174;28;20191;-48
2023/03/26 02:46:45;;;;;;;8.10;1.60;;;;;;;5.59;100.00;100011.22;5034119;28;20706;-42
2023/03/26 02:49:29;;;;;;;8.10;1.85;;;;;;;5.59;100.00;100019.22;5037376;28;20262;-44
2023/03/26 02:51:55;;;;;;;4.80;1.23;;;;;;;5.56;100.00;100016.66;5028371;28;20183;-45
2023/03/26 02:54:25;;;;;;;4.45;1.33;;;;;;;5.61;100.00;100012.06;5025681;28;20195;-43
2023/03/26 02:57:09;;;;;;;6.25;1.80;;;;;;;5.51;100.00;100032.75;5041376;28;20210;-44
2023/03/26 02:59:49;;;;;;;8.45;1.63;;;;;;;5.48;100.00;100019.53;5032907;28;20568;-47
2023/03/26 03:02:33;;;;;;;4.60;1.23;;;;;;;5.35;100.00;100019.03;5041067;28;20284;-47
2023/03/26 03:05:17;;;;;;;3.55;1.20;;;;;;;5.29;100.00;100024.53;5039489;28;20204;-46
2023/03/26 03:07:45;;;;;;;7.30;1.30;;;;;;;5.28;100.00;100021.94;5039675;28;20699;-46
2023/03/26 03:10:12;;;;;;;5.10;1.13;;;;;;;5.26;100.00;100019.31;5041313;28;20572;-47
2023/03/26 03:13:07;;;;;;;3.95;1.27;;;;;;;5.35;100.00;100021.69;5040135;28;20316;-44
2023/03/26 03:15:33;;;;;;;5.65;1.20;;;;;;;5.31;100.00;100017.41;5045980;28;20258;-45
2023/03/26 03:17:59;;;;;;;6.80;2.55;;;;;;;5.34;100.00;100019.97;5040361;28;20247;-46
2023/03/26 03:20:29;;;;;;;6.03;1.45;;;;;;;5.37;100.00;100025.16;5040400;28;20171;-44
2023/03/26 03:22:54;;;;;;;5.43;1.40;;;;;;;5.46;100.00;100013.38;5039747;28;20655;-45
2023/03/26 03:25:21;;;;;;;7.43;1.70;;;;;;;5.43;100.00;100025.91;5043587;28;20203;-47
2023/03/26 03:27:46;;;;;;;6.03;1.42;;;;;;;5.34;100.00;100016.44;5051620;28;20207;-45
2023/03/26 03:30:13;;;;;;;3.85;1.00;;;;;;;5.25;100.00;100014.94;5038350;28;20194;-45
2023/03/26 03:32:39;;;;;;;4.78;1.08;;;;;;;5.09;100.00;100019.78;5036621;28;20188;-46
2023/03/26 03:35:05;;;;;;;5.03;1.30;;;;;;;5.12;100.00;100024.16;5037672;28;20289;-46
2023/03/26 03:37:31;;;;;;;4.82;1.35;;;;;;;5.28;100.00;100036.06;5046081;28;20164;-48
2023/03/26 03:39:58;;;;;;;6.20;1.30;;;;;;;5.19;100.00;100032.81;5038232;28;20211;-48
2023/03/26 03:42:26;;;;;;;7.72;1.25;;;;;;;5.13;100.00;100036.50;5039840;28;20203;-49
2023/03/26 03:44:55;;;;;;;6.57;1.30;;;;;;;5.11;100.00;100028.59;5042076;28;20223;-48
2023/03/26 03:47:44;;;;;;;5.07;1.10;;;;;;;4.98;100.00;100034.28;5046103;28;20731;-48
2023/03/26 03:50:11;;;;;;;7.07;0.98;;;;;;;4.95;100.00;100033.47;5039530;28;20646;-50
2023/03/26 03:52:45;;;;;;;5.45;1.10;;;;;;;5.01;100.00;100037.75;5039144;28;20513;-47
2023/03/26 03:55:14;;;;;;;7.93;1.40;;;;;;;5.01;100.00;100047.47;5045032;28;20257;-49
2023/03/26 03:57:51;;;;;;;7.07;1.30;;;;;;;5.08;100.00;100049.06;5039879;28;20722;-50
2023/03/26 04:00:19;;;;;;;6.88;1.50;;;;;;;4.93;100.00;100050.34;5037216;28;20178;-47
2023/03/26 04:02:57;;;;;;;8.43;1.80;;;;;;;4.97;100.00;100049.34;5045713;28;20711;-48
2023/03/26 04:05:25;;;;;;;14.32;2.38;;;;;;;4.73;100.00;100049.09;5040344;28;20222;-49
2023/03/26 04:07:51;;;;;;;7.32;1.98;;;;;;;4.68;100.00;100051.03;5047040;28;20204;-47
2023/03/26 04:10:22;;;;;;;12.30;1.92;;;;;;;4.57;100.00;100057.50;5040634;28;20195;-50
2023/03/26 04:13:06;;;;;;;10.95;2.22;;;;;;;4.49;100.00;100055.06;5039100;28;20186;-48
2023/03/26 04:15:50;;;;;;;11.07;2.03;;;;;;;4.47;100.00;100063.06;5037980;28;20285;-48
2023/03/26 04:18:16;;;;;;;12.50;2.03;;;;;;;4.56;100.00;100058.44;5039965;28;20210;-49
2023/03/26 04:20:48;;;;;;;9.82;2.13;;;;;;;4.47;100.00;100051.59;5045921;28;20563;-49
2023/03/26 04:23:25;;;;;;;12.80;1.88;;;;;;;4.39;100.00;100053.56;5030119;28;20182;-47
2023/03/26 04:26:04;;;;;;;15.55;2.40;;;;;;;4.34;100.00;100046.56;5039500;28;20198;-48
2023/03/26 04:29:02;;;;;;;11.93;2.28;;;;;;;4.28;100.00;100051.16;5038890;28;20205;-49
2023/03/26 04:31:29;;;;;;;14.45;2.40;;;;;;;4.27;100.00;100054.75;5034795;28;20566;-48
2023/03/26 04:34:17;;;;;;;11.63;2.17;;;;;;;4.25;100.00;100054.78;5039036;28;20286;-48
2023/03/26 04:37:09;;;;;;;15.18;2.42;;;;;;;4.20;100.00;100066.38;5054725;28;20556;-48
2023/03/26 04:39:43;;;;;;;13.57;2.90;;;;;;;4.12;100.00;100055.97;5040490;28;20196;-49
2023/03/26 04:42:40;;;;;;;18.33;3.33;;;;;;;4.05;100.00;100060.56;5022389;28;20200;-49
2023/03/26 04:45:21;;;;;;;23.33;3.10;;;;;;;3.98;100.00;100058.97;5046012;28;20233;-48
2023/03/26 04:47:52;;;;;;;14.70;2.63;;;;;;;3.98;100.00;100066.03;5046281;28;20290;-48
2023/03/26 04:50:17;;;;;;;15.60;2.78;;;;;;;4.01;100.00;100064.19;5035369;28;20195;-49
2023/03/26 04:52:43;;;;;;;12.60;1.98;;;;;;;4.01;100.00;100061.53;5034831;28;20180;-48
2023/03/26 04:55:55;;;;;;;18.40;2.58;;;;;;;3.99;100.00;100066.00;5039339;28;20293;-47
2023/03/26 04:58:41;;;;;;;13.63;2.50;;;;;;;3.92;100.00;100059.13;5036023;28;20290;-46
2023/03/26 05:01:09;;;;;;;16.52;3.05;;;;;;;3.96;100.00;100058.13;5030944;28;20183;-47
2023/03/26 05:03:40;;;;;;;19.85;2.88;;;;;;;3.96;100.00;100063.44;5037592;28;20274;-49
2023/03/26 05:06:10;;;;;;;21.95;3.10;;;;;;;3.98;100.00;100053.69;5045908;28;20230;-48
2023/03/26 05:08:36;;;;;;;12.10;2.53;;;;;;;3.97;100.00;100046.63;5036431;28;20260;-50
2023/03/26 05:11:02;;;;;;;17.27;3.30;;;;;;;3.88;100.00;100052.13;5041568;28;20192;-47
2023/03/26 05:13:34;;;;;;;16.73;2.95;;;;;;;3.84;100.00;100051.31;5030632;28;20186;-47
2023/03/26 05:16:05;;;;;;;15.02;2.72;;;;;;;3.91;100.00;100058.25;5038314;28;20233;-46
2023/03/26 05:18:38;;;;;;;19.83;3.83;;;;;;;3.87;100.00;100056.56;5036645;28;20206;-49
2023/03/26 05:21:04;;;;;;;12.60;2.63;;;;;;;3.86;100.00;100048.66;5037161;28;20261;-46
2023/03/26 05:23:31;;;;;;;21.13;2.95;;;;;;;3.80;100.00;100059.38;5033230;28;20183;-47
2023/03/26 05:26:15;;;;;;;19.15;2.92;;;;;;;3.76;100.00;100063.00;5039612;28;20258;-42
2023/03/26 05:28:41;;;;;;;15.93;4.10;;;;;;;3.76;100.00;100055.06;5040624;28;20191;-41
2023/03/26 05:31:20;;;;;;;21.73;3.30;;;;;;;3.66;100.00;100054.41;5038226;28;20190;-42
2023/03/26 05:33:47;;;;;;;21.95;3.47;;;;;;;3.73;100.00;100058.66;5037970;28;20661;-43
2023/03/26 05:36:14;;;;;;;15.95;3.47;;;;;;;3.66;100.00;100057.06;5037729;28;20191;-42
2023/03/26 05:38:48;;;;;;;21.30;3.17;;;;;;;3.66;100.00;100051.75;5024134;28;20178;-45
2023/03/26 05:41:25;;;;;;;19.40;3.78;;;;;;;3.70;100.00;100043.72;5045533;28;20247;-39
2023/03/26 05:43:50;;;;;;;22.95;3.33;;;;;;;3.72;100.00;100038.38;5053355;28;20195;-43
2023/03/26 05:46:21;;;;;;;21.38;3.70;;;;;;;3.66;100.00;100055.28;5037469;28;20223;-41
2023/03/26 05:48:48;;;;;;;16.30;3.53;;;;;;;3.73;100.00;100042.75;5046049;28;20226;-41
2023/03/26 05:51:14;;;;;;;24.13;4.10;;;;;;;3.75;100.00;100040.09;5036948;28;20172;-42
2023/03/26 05:53:47;;;;;;;20.50;2.95;;;;;;;3.83;100.00;100032.84;5046057;28;20183;-43
2023/03/26 05:56:21;;;;;;;19.02;3.72;;;;;;;3.93;100.00;100047.59;5036578;28;20354;-42
2023/03/26 05:59:05;;;;;;;20.52;3.58;;;;;;;3.76;100.00;100042.72;5040202;28;20187;-44
2023/03/26 06:01:49;;;;;;;19.33;3.35;;;;;;;3.78;100.00;100047.94;5036074;28;20690;-41
2023/03/26 06:04:24;;;;;;;22.75;4.18;;;;;;;3.83;99.42;100049.59;5039670;28;20233;-48
2023/03/26 06:07:11;;;;;;;21.27;3.38;;;;;;;3.95;98.91;100048.44;5036680;28;20665;-49
2023/03/26 06:09:40;;;;;;;14.65;3.35;;;;;;;4.00;98.20;100051.88;5039791;28;20191;-47
2023/03/26 06:12:08;;;;;;;22.23;3.28;;;;;;;4.02;98.27;100051.81;5037618;28;20175;-45
2023/03/26 06:14:34;;;;;;;16.15;3.15;;;;;;;4.03;98.08;100043.81;5039749;28;20236;-48
2023/03/26 06:17:08;;;;;;;14.10;3.15;;;;;;;4.07;97.72;100047.28;5044887;28;20183;-47
2023/03/26 06:19:54;;;;;;;18.52;3.35;;;;;;;4.01;97.23;100044.78;5033725;28;20612;-49
2023/03/26 06:22:23;;;;;;;15.02;3.08;;;;;;;4.01;97.02;100058.88;5034979;28;20180;-42
2023/03/26 06:25:19;;;;;;;17.15;3.25;;;;;;;4.06;96.30;100042.88;5032090;28;20558;-42
2023/03/26 06:28:03;;;;;;;17.15;3.55;;;;;;;4.18;95.89;100054.97;5037033;28;20571;-45
2023/03/26 06:30:49;;;;;;;13.60;2.85;;;;;;;4.37;95.39;100058.03;5047197;28;20174;-47
2023/03/26 06:33:27;;;;;;;21.30;3.15;;;;;;;4.37;95.54;100050.94;5041506;28;20198;-49
2023/03/26 06:35:53;;;;;;;20.80;3.53;;;;;;;4.47;93.84;100049.78;5038357;28;20719;-47
2023/03/26 06:38:19;;;;;;;18.90;3.67;;;;;;;4.51;93.02;100043.50;5044155;28;20180;-48
2023/03/26 06:40:45;;;;;;;22.30;4.05;;;;;;;4.58;92.89;100046.00;5050810;28;20175;-44
2023/03/26 06:43:35;;;;;;;14.95;3.20;;;;;;;4.80;92.90;100051.59;5040994;28;20354;-43
2023/03/26 06:46:26;;;;;;;22.52;9.68;;;;;;;4.64;91.89;100045.84;5039395;28;20242;-46
2023/03/26 06:49:11;;;;;;;18.60;3.72;;;;;;;4.82;90.98;100053.28;5046570;28;20206;-43
2023/03/26 06:51:56;;;;;;;23.10;3.42;;;;;;;5.03;90.82;100045.66;5040890;28;20205;-43
2023/03/26 06:54:44;;;;;;;14.93;3.25;;;;;;;5.37;90.38;100057.03;5040995;28;20216;-42
2023/03/26 06:57:28;;;;;;;15.95;3.80;;;;;;;5.14;88.85;100055.06;5046020;28;20233;-43
2023/03/26 07:00:25;;;;;;;21.02;3.40;;;;;;;5.50;88.00;100052.25;5042667;28;20274;-42
2023/03/26 07:03:20;;;;;;;19.05;3.08;;;;;;;6.22;87.20;100046.50;4974873;28;20229;-43
2023/03/26 07:06:15;;;;;;;18.65;2.97;;;;;;;6.64;85.75;100047.75;4989404;28;20643;-42
2023/03/26 07:08:59;;;;;;;18.95;3.55;;;;;;;6.40;84.56;100037.88;5042760;28;20178;-44
2023/03/26 07:12:05;;;;;;;20.17;4.07;;;;;;;6.79;83.11;100036.56;4983952;28;20198;-42
2023/03/26 07:14:49;;;;;;;14.43;3.50;;;;;;;6.45;82.29;100024.44;4984057;28;20339;-42
2023/03/26 07:17:33;;;;;;;16.60;2.90;;;;;;;7.07;81.26;100020.47;5025740;28;20286;-47
2023/03/26 07:20:14;;;;;;;23.85;3.13;;;;;;;7.16;80.68;100024.59;5026342;28;20571;-44
2023/03/26 07:22:41;;;;;;;19.10;3.83;;;;;;;7.51;80.13;100025.03;5042737;28;20679;-46
2023/03/26 07:25:07;;;;;;;12.82;3.72;;;;;;;7.84;79.23;100013.03;5040073;28;20210;-44
2023/03/26 07:28:44;;;;;;;17.40;3.28;;;;;;;8.02;77.68;100003.44;5038894;28;20196;-46
2023/03/26 07:31:39;;;;;;;23.38;3.97;;;;;;;8.34;76.67;100011.03;5038751;28;20674;-46
2023/03/26 07:34:49;;;;;;;21.75;4.28;;;;;;;7.89;76.08;100004.84;5004559;28;20202;-45
2023/03/26 07:37:41;;;;;;;14.10;2.88;;;;;;;7.87;76.07;99995.19;5041920;28;20681;-46
2023/03/26 07:40:55;;;;;;;21.90;3.17;;;;;;;7.36;75.27;99990.06;5040172;28;20233;-45
2023/03/26 07:43:58;;;;;;;14.40;3.05;;;;;;;7.42;75.26;100004.94;5029920;28;20195;-45
2023/03/26 07:46:52;;;;;;;19.65;3.80;;;;;;;6.84;74.86;99996.47;5015459;28;20207;-47
2023/03/26 07:49:20;;;;;;;16.20;3.47;;;;;;;7.36;75.66;100002.50;5036230;28;20171;-48
2023/03/26 07:52:04;;;;;;;15.90;3.55;;;;;;;7.57;75.68;100008.81;5037576;28;20203;-47
2023/03/26 07:54:54;;;;;;;19.70;3.40;;;;;;;7.20;75.63;100005.75;5049284;28;20627;-44
2023/03/26 07:58:15;;;;;;;21.95;3.20;;;;;;;6.69;76.01;100024.50;5050155;28;20233;-46
2023/03/26 08:01:09;;;;;;;18.90;4.03;;;;;;;7.10;75.71;100017.66;5043874;28;20632;-43
2023/03/26 08:03:35;;;;;;;15.55;3.22;;;;;;;7.30;75.03;100011.59;5045426;28;20513;-46
2023/03/26 08:06:31;;;;;;;15.50;3.58;;;;;;;7.39;74.28;100000.59;5041244;28;20594;-48
2023/03/26 08:09:30;;;;;;;18.75;3.45;;;;;;;7.19;73.41;99992.47;5046856;28;20172;-42
2023/03/26 08:12:21;;;;;;;13.25;2.72;;;;;;;6.93;73.63;99991.69;5035512;28;20279;-47
2023/03/26 08:14:59;;;;;;;16.25;3.20;;;;;;;7.09;73.35;99988.44;5038509;28;20717;-47
2023/03/26 08:17:34;;;;;;;17.33;3.42;;;;;;;8.03;73.31;100006.97;5036152;28;20217;-44
2023/03/26 08:20:05;;;;;;;17.67;3.72;;;;;;;7.82;73.53;100006.03;5037514;28;20180;-43
2023/03/26 08:22:37;;;;;;;19.50;3.38;;;;;;;7.70;72.71;99988.75;5044823;28;20257;-42
2023/03/26 08:25:44;;;;;;;15.30;2.97;;;;;;;7.72;72.42;99986.88;5039678;28;20717;-44
2023/03/26 08:28:36;;;;;;;15.57;3.10;;;;;;;8.06;73.21;100001.50;4990671;28;20767;-46
2023/03/26 08:31:02;;;;;;;13.77;3.03;;;;;;;8.32;70.87;99975.53;4988063;28;20251;-47
2023/03/26 08:33:29;;;;;;;24.02;3.90;;;;;;;8.28;70.35;99974.78;5024945;28;20322;-45
2023/03/26 08:35:55;;;;;;;20.60;3.97;;;;;;;8.23;70.31;99983.00;5040064;28;20196;-46
2023/03/26 08:38:21;;;;;;;17.50;3.20;;;;;;;7.60;69.54;99980.22;5039892;28;20187;-45
2023/03/26 08:41:11;;;;;;;13.00;2.80;;;;;;;7.61;69.64;99973.97;5036201;28;20689;-45
2023/03/26 08:43:53;;;;;;;14.80;2.85;;;;;;;7.88;69.86;99987.13;5039741;28;20175;-45
2023/03/26 08:46:33;;;;;;;17.15;3.10;;;;;;;7.42;69.91;99976.50;5040714;28;20207;-46
2023/03/26 08:49:40;;;;;;;17.00;2.92;;;;;;;7.57;70.37;99998.16;5039631;28;20537;-45
2023/03/26 08:52:11;;;;;;;14.20;3.17;;;;;;;7.36;70.42;99990.06;5006206;28;20231;-47
2023/03/26 08:54:42;;;;;;;14.15;3.00;;;;;;;7.26;70.58;100006.44;5037106;28;20187;-45
2023/03/26 08:57:43;;;;;;;17.65;3.65;;;;;;;7.60;71.47;100000.69;5039489;28;20584;-47
2023/03/26 09:00:33;;;;;;;21.52;3.45;;;;;;;7.35;71.25;100012.31;5008114;28;20184;-44
2023/03/26 09:03:33;;;;;;;16.45;3.33;;;;;;;7.92;71.15;99998.56;5037609;28;20208;-46
2023/03/26 09:06:36;;;;;;;17.42;3.17;;;;;;;8.88;69.65;99998.94;5038452;28;20207;-45
2023/03/26 09:09:14;;;;;;;15.15;3.22;;;;;;;9.33;68.67;99987.06;5038379;28;20301;-46
2023/03/26 09:11:56;;;;;;;13.18;2.70;;;;;;;9.94;67.16;99971.69;5037207;28;20331;-44
2023/03/26 09:14:34;;;;;;;14.75;3.22;;;;;;;9.44;66.47;99959.81;5041273;28;20643;-46
2023/03/26 09:17:14;;;;;;;16.83;3.35;;;;;;;9.45;65.98;99973.13;5037648;28;20171;-46
2023/03/26 09:19:58;;;;;;;15.02;2.63;;;;;;;9.00;65.71;99958.28;5037825;28;20198;-46
2023/03/26 09:22:23;;;;;;;11.98;2.40;;;;;;;9.61;65.51;99959.88;5035748;28;20535;-48
2023/03/26 09:25:26;;;;;;;15.63;3.10;;;;;;;9.35;65.36;99962.94;5038579;28;20315;-47
2023/03/26 09:28:10;;;;;;;14.75;3.38;;;;;;;9.20;64.87;99954.69;5037423;28;20205;-46
2023/03/26 09:30:57;;;;;;;17.40;3.00;;;;;;;8.21;65.04;99946.63;5038885;28;20191;-45
2023/03/26 09:34:07;;;;;;;11.23;2.95;;;;;;;8.05;66.21;99963.28;5040339;28;20548;-46
2023/03/26 09:36:48;;;;;;;14.52;3.00;;;;;;;7.63;66.11;99948.13;5037686;28;20238;-46
2023/03/26 09:39:55;;;;;;;12.75;2.53;;;;;;;8.63;65.92;99967.09;5034709;28;20195;-46
2023/03/26 09:42:42;;;;;;;16.65;3.78;;;;;;;9.39;65.25;99962.72;5035242;28;20179;-46
2023/03/26 09:45:25;;;;;;;16.70;3.25;;;;;;;8.76;64.45;99944.25;5041231;28;20222;-46
2023/03/26 09:48:28;;;;;;;12.00;2.70;;;;;;;9.04;65.26;99938.50;5040572;28;20697;-46
2023/03/26 09:50:56;;;;;;;11.27;2.42;;;;;;;9.11;65.25;99948.91;5039042;28;20183;-46
2023/03/26 09:53:40;;;;;;;17.33;3.15;;;;;;;9.26;64.20;99943.72;5034488;28;20182;-45
2023/03/26 09:56:23;;;;;;;11.73;2.53;;;;;;;9.33;64.20;99957.66;5038302;28;20226;-46
2023/03/26 09:59:08;;;;;;;18.27;3.45;;;;;;;9.18;63.93;99943.22;5038914;28;20595;-46
2023/03/26 10:01:45;;;;;;;15.13;3.10;;;;;;;9.38;63.36;99939.63;5036051;28;20669;-46
2023/03/26 10:04:19;;;;;;;17.83;3.08;;;;;;;9.73;63.04;99929.03;5037804;28;20586;-45
2023/03/26 10:07:13;;;;;;;15.23;3.58;;;;;;;9.64;62.24;99910.72;5039580;28;20665;-45
2023/03/26 10:09:51;;;;;;;9.05;2.30;;;;;;;9.19;63.25;99936.06;5037794;28;20192;-47
2023/03/26 10:12:42;;;;;;;18.50;3.33;;;;;;;9.75;64.05;99950.31;5035536;28;20198;-46
2023/03/26 10:15:10;;;;;;;12.05;2.70;;;;;;;9.40;62.25;99936.84;5036390;28;20589;-45
2023/03/26 10:17:54;;;;;;;11.10;2.92;;;;;;;9.92;63.06;99946.81;5038878;28;20175;-45
2023/03/26 10:20:43;;;;;;;14.13;2.88;;;;;;;9.52;62.42;99946.09;5045157;28;20215;-46
2023/03/26 10:23:22;;;;;;;10.15;2.55;;;;;;;9.23;62.55;99953.72;5038193;28;20263;-46
2023/03/26 10:26:04;;;;;;;16.27;3.25;;;;;;;9.73;62.83;99960.22;5038166;28;20226;-45
2023/03/26 10:28:42;;;;;;;15.93;3.10;;;;;;;9.56;61.98;99943.22;5036065;28;20650;-46
2023/03/26 10:31:34;;;;;;;15.60;2.70;;;;;;;8.98;62.77;99952.16;5037308;28;20190;-48
2023/03/26 10:34:23;;;;;;;13.38;2.88;;;;;;;9.02;62.86;99952.88;5046020;28;20172;-46
2023/03/26 10:37:23;;;;;;;14.93;3.80;;;;;;;9.14;64.03;99963.03;5037528;28;20203;-48
2023/03/26 10:40:08;;;;;;;16.77;3.20;;;;;;;9.04;63.79;99959.03;5033035;28;20225;-46
2023/03/26 10:42:50;;;;;;;11.98;2.63;;;;;;;9.49;63.60;99966.72;5045521;28;20608;-46
2023/03/26 10:46:08;;;;;;;10.52;2.42;;;;;;;9.83;61.03;99927.59;5034507;28;20214;-47
2023/03/26 10:49:27;;;;;;;13.68;2.50;;;;;;;9.88;60.09;99911.31;4975694;28;20857;-44
2023/03/26 10:51:59;;;;;;;17.23;2.63;;;;;;;9.77;61.54;99930.56;4978968;28;20634;-45
2023/03/26 10:54:49;;;;;;;17.65;2.80;;;;;;;9.15;61.47;99927.31;4954911;28;20284;-48
2023/03/26 10:57:34;;;;;;;11.15;2.80;;;;;;;9.07;61.38;99933.03;5013389;28;20180;-47
2023/03/26 11:00:25;;;;;;;17.33;3.67;;;;;;;9.74;60.40;99928.06;5033375;28;20266;-47
2023/03/26 11:03:10;;;;;;;13.65;2.65;;;;;;;9.09;60.92;99935.63;5028047;28;20199;-46
2023/03/26 11:05:54;;;;;;;11.88;2.58;;;;;;;9.96;61.08;99933.22;5039450;28;20242;-44
2023/03/26 11:08:32;;;;;;;17.60;3.55;;;;;;;9.64;60.59;99922.31;5049590;28;20240;-44
2023/03/26 11:11:12;;;;;;;13.10;2.85;;;;;;;9.41;61.72;99936.78;5032230;28;20187;-45
2023/03/26 11:14:02;;;;;;;11.15;2.30;;;;;;;9.73;61.15;99936.16;5034065;28;20176;-42
2023/03/26 11:16:59;;;;;;;18.95;2.90;;;;;;;9.56;61.00;99937.00;5038171;28;20214;-42
2023/03/26 11:19:49;;;;;;;12.43;2.88;;;;;;;9.17;62.27;99954.84;5037145;28;20237;-43
2023/03/26 11:22:31;;;;;;;12.88;2.97;;;;;;;9.31;60.99;99948.84;5049135;28;20183;-44
2023/03/26 11:25:30;;;;;;;12.88;3.20;;;;;;;9.97;60.21;99948.34;5038718;28;20229;-43
2023/03/26 11:28:03;;;;;;;14.38;2.90;;;;;;;9.93;60.11;99935.16;5041828;28;20570;-41
2023/03/26 11:30:38;;;;;;;13.77;3.10;;;;;;;10.17;60.31;99950.00;5047982;28;20241;-42
2023/03/26 11:33:09;;;;;;;10.32;2.90;;;;;;;10.34;59.71;99943.81;5038773;28;20660;-43
2023/03/26 11:35:39;;;;;;;11.93;3.13;;;;;;;9.94;59.94;99932.41;5037657;28;20690;-45
2023/03/26 11:38:27;;;;;;;14.10;2.58;;;;;;;10.11;61.10;99971.72;5042641;28;20175;-44
2023/03/26 11:40:55;;;;;;;10.55;2.38;;;;;;;10.71;59.80;99964.22;5040170;28;20285;-41
2023/03/26 11:43:40;;;;;;;11.45;2.58;;;;;;;10.68;57.96;99940.25;5044381;28;20175;-46
2023/03/26 11:46:11;;;;;;;12.80;2.60;;;;;;;10.48;58.84;99953.81;5036508;28;20686;-48
2023/03/26 11:48:51;;;;;;;11.98;2.72;;;;;;;10.74;58.91;99954.28;5041311;28;20182;-48
2023/03/26 11:51:33;;;;;;;13.50;2.40;;;;;;;10.43;58.41;99937.09;5042233;28;20571;-46
2023/03/26 11:54:00;;;;;;;15.85;2.47;;;;;;;10.24;58.88;99943.41;5041224;28;20553;-48
2023/03/26 11:56:36;;;;;;;12.02;2.78;;;;;;;10.68;58.93;99961.69;5040255;28;20196;-47
2023/03/26 11:59:10;;;;;;;9.07;2.10;;;;;;;10.52;58.47;99953.59;5036418;28;20646;-48
2023/03/26 12:01:43;;;;;;;12.88;2.30;;;;;;;10.52;57.44;99932.16;5037352;28;20278;-48
2023/03/26 12:04:16;;;;;;;14.05;2.17;;;;;;;10.31;58.15;99936.81;5040378;28;20545;-46
2023/03/26 12:06:52;;;;;;;9.82;2.38;;;;;;;10.64;56.96;99921.75;5040525;28;20195;-48
2023/03/26 12:09:19;;;;;;;10.00;2.00;;;;;;;11.07;56.78;99932.84;5039428;28;20195;-48
2023/03/26 12:11:50;;;;;;;12.38;2.45;;;;;;;10.38;56.54;99915.06;5035224;28;20188;-47
2023/03/26 12:14:20;;;;;;;10.13;2.42;;;;;;;10.30;56.64;99921.69;5038799;28;20721;-46
2023/03/26 12:17:06;;;;;;;14.70;2.83;;;;;;;10.31;57.51;99931.44;5040178;28;20244;-48